ENJB weather

Jarlsberg Airfield
T√łnsberg, Vestfold, Norway

Public forecast

Using degrees Celsius for public forecast. Weather courtesy of forecast.io.

Closest aviation weather report (METAR) to Jarlsberg Airfield

Closest report is Sandefjord Airport, Torp, 7.6 nm (14.0 km) SSW. Retrieved 2020/05/29 05:50 UTC (19 minutes ago):

ENTO 290550Z 01004KT CAVOK 12/05 Q1031 NOSIG

Closest aviation forecast (TAF) to Jarlsberg Airfield

Closest forecast is Sandefjord Airport, Torp, 7.6 nm (14.0 km) SSW. Retrieved 2020/05/29 06:00 UTC (9 minutes ago):

TAF ENTO 290500Z 2906/3006 VRB05KT CAVOK PROB40 2912/2918 21010KT BECMG 3002/3005 03012KT